sensor_id;sensor_type;location;lat;lon;timestamp;P1;durP1;ratioP1;P2;durP2;ratioP2
80219;SDS011;70247;37.958;23.722;2023-06-10T00:01:44;19.75;;;11.32;;
80219;SDS011;70247;37.958;23.722;2023-06-10T00:04:15;21.90;;;11.38;;
80219;SDS011;70247;37.958;23.722;2023-06-10T00:06:44;26.65;;;11.90;;
80219;SDS011;70247;37.958;23.722;2023-06-10T00:09:12;25.00;;;11.65;;
80219;SDS011;70247;37.958;23.722;2023-06-10T00:11:39;22.90;;;11.70;;
80219;SDS011;70247;37.958;23.722;2023-06-10T00:14:06;22.95;;;11.48;;
80219;SDS011;70247;37.958;23.722;2023-06-10T00:16:32;21.90;;;11.20;;
80219;SDS011;70247;37.958;23.722;2023-06-10T00:19:00;23.42;;;12.13;;
80219;SDS011;70247;37.958;23.722;2023-06-10T00:21:28;25.45;;;12.35;;
80219;SDS011;70247;37.958;23.722;2023-06-10T00:23:55;25.55;;;12.60;;
80219;SDS011;70247;37.958;23.722;2023-06-10T00:26:24;27.13;;;12.40;;
80219;SDS011;70247;37.958;23.722;2023-06-10T00:28:51;22.38;;;11.93;;
80219;SDS011;70247;37.958;23.722;2023-06-10T00:31:17;25.30;;;12.02;;
80219;SDS011;70247;37.958;23.722;2023-06-10T00:33:43;25.70;;;11.43;;
80219;SDS011;70247;37.958;23.722;2023-06-10T00:36:09;28.73;;;11.95;;
80219;SDS011;70247;37.958;23.722;2023-06-10T00:38:35;22.98;;;11.57;;
80219;SDS011;70247;37.958;23.722;2023-06-10T00:41:01;23.48;;;11.05;;
80219;SDS011;70247;37.958;23.722;2023-06-10T00:43:26;22.10;;;10.90;;
80219;SDS011;70247;37.958;23.722;2023-06-10T00:45:52;24.17;;;11.15;;
80219;SDS011;70247;37.958;23.722;2023-06-10T00:48:18;22.63;;;11.13;;
80219;SDS011;70247;37.958;23.722;2023-06-10T00:50:47;23.33;;;11.48;;
80219;SDS011;70247;37.958;23.722;2023-06-10T00:53:14;21.38;;;11.27;;
80219;SDS011;70247;37.958;23.722;2023-06-10T00:55:40;23.10;;;11.32;;
80219;SDS011;70247;37.958;23.722;2023-06-10T00:58:06;24.55;;;11.20;;
80219;SDS011;70247;37.958;23.722;2023-06-10T01:00:33;22.08;;;11.68;;
80219;SDS011;70247;37.958;23.722;2023-06-10T01:02:59;24.08;;;11.00;;
80219;SDS011;70247;37.958;23.722;2023-06-10T01:05:24;24.33;;;11.52;;
80219;SDS011;70247;37.958;23.722;2023-06-10T01:07:56;18.80;;;11.05;;
80219;SDS011;70247;37.958;23.722;2023-06-10T01:13:08;22.67;;;11.15;;
80219;SDS011;70247;37.958;23.722;2023-06-10T01:15:36;22.00;;;11.02;;
80219;SDS011;70247;37.958;23.722;2023-06-10T01:18:04;24.05;;;11.88;;
80219;SDS011;70247;37.958;23.722;2023-06-10T01:20:33;21.15;;;11.23;;
80219;SDS011;70247;37.958;23.722;2023-06-10T01:23:02;23.30;;;11.80;;
80219;SDS011;70247;37.958;23.722;2023-06-10T01:25:28;20.52;;;10.70;;
80219;SDS011;70247;37.958;23.722;2023-06-10T01:30:34;22.45;;;10.73;;
80219;SDS011;70247;37.958;23.722;2023-06-10T01:33:28;21.55;;;10.57;;
80219;SDS011;70247;37.958;23.722;2023-06-10T01:35:59;28.10;;;11.82;;
80219;SDS011;70247;37.958;23.722;2023-06-10T01:38:30;22.37;;;11.40;;
80219;SDS011;70247;37.958;23.722;2023-06-10T01:40:58;18.98;;;10.93;;
80219;SDS011;70247;37.958;23.722;2023-06-10T01:43:25;17.67;;;10.65;;
80219;SDS011;70247;37.958;23.722;2023-06-10T01:45:51;22.42;;;11.02;;
80219;SDS011;70247;37.958;23.722;2023-06-10T01:48:17;25.45;;;11.60;;
80219;SDS011;70247;37.958;23.722;2023-06-10T01:50:43;22.10;;;10.80;;
80219;SDS011;70247;37.958;23.722;2023-06-10T01:53:09;22.95;;;11.10;;
80219;SDS011;70247;37.958;23.722;2023-06-10T01:55:34;23.88;;;11.90;;
80219;SDS011;70247;37.958;23.722;2023-06-10T01:58:00;24.13;;;11.70;;
80219;SDS011;70247;37.958;23.722;2023-06-10T02:00:26;24.77;;;11.77;;
80219;SDS011;70247;37.958;23.722;2023-06-10T02:02:52;30.20;;;12.10;;
80219;SDS011;70247;37.958;23.722;2023-06-10T02:05:18;23.73;;;11.48;;
80219;SDS011;70247;37.958;23.722;2023-06-10T02:07:44;24.60;;;11.00;;
80219;SDS011;70247;37.958;23.722;2023-06-10T02:10:10;22.60;;;11.18;;
80219;SDS011;70247;37.958;23.722;2023-06-10T02:12:36;22.33;;;11.02;;
80219;SDS011;70247;37.958;23.722;2023-06-10T02:15:01;21.65;;;11.68;;
80219;SDS011;70247;37.958;23.722;2023-06-10T02:17:27;25.58;;;11.43;;
80219;SDS011;70247;37.958;23.722;2023-06-10T02:19:55;19.40;;;10.90;;
80219;SDS011;70247;37.958;23.722;2023-06-10T02:22:22;20.77;;;11.50;;
80219;SDS011;70247;37.958;23.722;2023-06-10T02:24:48;26.35;;;11.02;;
80219;SDS011;70247;37.958;23.722;2023-06-10T02:27:15;27.40;;;12.73;;
80219;SDS011;70247;37.958;23.722;2023-06-10T02:29:41;19.50;;;11.07;;
80219;SDS011;70247;37.958;23.722;2023-06-10T02:32:08;23.42;;;12.15;;
80219;SDS011;70247;37.958;23.722;2023-06-10T02:34:34;17.48;;;10.63;;
80219;SDS011;70247;37.958;23.722;2023-06-10T02:37:01;19.45;;;11.13;;
80219;SDS011;70247;37.958;23.722;2023-06-10T02:39:27;18.98;;;11.18;;
80219;SDS011;70247;37.958;23.722;2023-06-10T02:41:53;21.70;;;11.68;;
80219;SDS011;70247;37.958;23.722;2023-06-10T02:44:19;22.77;;;11.80;;
80219;SDS011;70247;37.958;23.722;2023-06-10T02:46:45;20.05;;;11.60;;
80219;SDS011;70247;37.958;23.722;2023-06-10T02:49:11;22.48;;;11.70;;
80219;SDS011;70247;37.958;23.722;2023-06-10T02:51:38;21.02;;;11.82;;
80219;SDS011;70247;37.958;23.722;2023-06-10T02:54:04;23.70;;;12.38;;
80219;SDS011;70247;37.958;23.722;2023-06-10T02:56:30;20.40;;;12.07;;
80219;SDS011;70247;37.958;23.722;2023-06-10T02:58:56;23.73;;;11.48;;
80219;SDS011;70247;37.958;23.722;2023-06-10T03:01:23;25.05;;;11.77;;
80219;SDS011;70247;37.958;23.722;2023-06-10T03:03:48;25.92;;;12.63;;
80219;SDS011;70247;37.958;23.722;2023-06-10T03:06:15;19.55;;;11.50;;
80219;SDS011;70247;37.958;23.722;2023-06-10T03:08:41;32.85;;;12.55;;
80219;SDS011;70247;37.958;23.722;2023-06-10T03:11:07;21.25;;;11.73;;
80219;SDS011;70247;37.958;23.722;2023-06-10T03:13:33;21.95;;;11.57;;
80219;SDS011;70247;37.958;23.722;2023-06-10T03:15:59;23.40;;;11.27;;
80219;SDS011;70247;37.958;23.722;2023-06-10T03:18:26;19.52;;;11.98;;
80219;SDS011;70247;37.958;23.722;2023-06-10T03:20:53;23.40;;;11.88;;
80219;SDS011;70247;37.958;23.722;2023-06-10T03:23:20;24.38;;;12.38;;
80219;SDS011;70247;37.958;23.722;2023-06-10T03:25:46;27.83;;;12.48;;
80219;SDS011;70247;37.958;23.722;2023-06-10T03:28:12;27.15;;;12.15;;
80219;SDS011;70247;37.958;23.722;2023-06-10T03:30:37;22.23;;;11.23;;
80219;SDS011;70247;37.958;23.722;2023-06-10T03:33:03;16.42;;;10.55;;
80219;SDS011;70247;37.958;23.722;2023-06-10T03:35:29;23.50;;;12.77;;
80219;SDS011;70247;37.958;23.722;2023-06-10T03:37:55;21.27;;;12.15;;
80219;SDS011;70247;37.958;23.722;2023-06-10T03:40:21;32.22;;;12.18;;
80219;SDS011;70247;37.958;23.722;2023-06-10T03:42:46;31.08;;;11.95;;
80219;SDS011;70247;37.958;23.722;2023-06-10T03:45:12;21.63;;;11.30;;
80219;SDS011;70247;37.958;23.722;2023-06-10T03:47:38;24.73;;;10.90;;
80219;SDS011;70247;37.958;23.722;2023-06-10T03:50:05;25.90;;;10.88;;
80219;SDS011;70247;37.958;23.722;2023-06-10T03:52:33;20.95;;;11.13;;
80219;SDS011;70247;37.958;23.722;2023-06-10T03:55:00;20.15;;;10.02;;
80219;SDS011;70247;37.958;23.722;2023-06-10T03:57:26;22.85;;;10.57;;
80219;SDS011;70247;37.958;23.722;2023-06-10T03:59:52;20.52;;;10.57;;
80219;SDS011;70247;37.958;23.722;2023-06-10T04:02:17;23.77;;;10.90;;
80219;SDS011;70247;37.958;23.722;2023-06-10T04:04:43;23.38;;;10.25;;
80219;SDS011;70247;37.958;23.722;2023-06-10T04:07:09;25.98;;;10.68;;
80219;SDS011;70247;37.958;23.722;2023-06-10T04:09:36;19.13;;;10.38;;
80219;SDS011;70247;37.958;23.722;2023-06-10T04:12:02;17.35;;;10.13;;
80219;SDS011;70247;37.958;23.722;2023-06-10T04:14:31;15.30;;;10.13;;
80219;SDS011;70247;37.958;23.722;2023-06-10T04:16:56;20.02;;;10.70;;
80219;SDS011;70247;37.958;23.722;2023-06-10T04:19:22;17.33;;;10.85;;
80219;SDS011;70247;37.958;23.722;2023-06-10T04:21:48;22.60;;;10.82;;
80219;SDS011;70247;37.958;23.722;2023-06-10T04:24:14;22.17;;;10.50;;
80219;SDS011;70247;37.958;23.722;2023-06-10T04:26:39;24.08;;;11.77;;
80219;SDS011;70247;37.958;23.722;2023-06-10T04:29:05;21.20;;;10.98;;
80219;SDS011;70247;37.958;23.722;2023-06-10T04:31:31;18.70;;;10.75;;
80219;SDS011;70247;37.958;23.722;2023-06-10T04:33:57;14.20;;;10.07;;
80219;SDS011;70247;37.958;23.722;2023-06-10T04:36:23;17.23;;;10.30;;
80219;SDS011;70247;37.958;23.722;2023-06-10T04:38:48;16.17;;;9.98;;
80219;SDS011;70247;37.958;23.722;2023-06-10T04:41:17;21.48;;;10.63;;
80219;SDS011;70247;37.958;23.722;2023-06-10T04:43:43;19.20;;;10.68;;
80219;SDS011;70247;37.958;23.722;2023-06-10T04:46:08;22.85;;;10.05;;
80219;SDS011;70247;37.958;23.722;2023-06-10T04:48:35;16.58;;;8.82;;
80219;SDS011;70247;37.958;23.722;2023-06-10T04:51:02;17.17;;;9.50;;
80219;SDS011;70247;37.958;23.722;2023-06-10T04:53:27;20.20;;;11.43;;
80219;SDS011;70247;37.958;23.722;2023-06-10T04:55:53;20.10;;;11.23;;
80219;SDS011;70247;37.958;23.722;2023-06-10T04:58:19;18.30;;;11.00;;
80219;SDS011;70247;37.958;23.722;2023-06-10T05:00:45;22.88;;;11.25;;
80219;SDS011;70247;37.958;23.722;2023-06-10T05:03:10;19.25;;;11.30;;
80219;SDS011;70247;37.958;23.722;2023-06-10T05:05:36;21.77;;;11.02;;
80219;SDS011;70247;37.958;23.722;2023-06-10T05:08:02;22.05;;;11.70;;
80219;SDS011;70247;37.958;23.722;2023-06-10T05:10:28;20.70;;;11.55;;
80219;SDS011;70247;37.958;23.722;2023-06-10T05:12:56;21.75;;;11.90;;
80219;SDS011;70247;37.958;23.722;2023-06-10T05:15:23;25.65;;;12.35;;
80219;SDS011;70247;37.958;23.722;2023-06-10T05:17:49;21.40;;;12.02;;
80219;SDS011;70247;37.958;23.722;2023-06-10T05:20:15;20.85;;;11.88;;
80219;SDS011;70247;37.958;23.722;2023-06-10T05:22:41;26.42;;;11.70;;
80219;SDS011;70247;37.958;23.722;2023-06-10T05:25:07;26.92;;;11.77;;
80219;SDS011;70247;37.958;23.722;2023-06-10T05:27:33;20.20;;;10.70;;
80219;SDS011;70247;37.958;23.722;2023-06-10T05:29:58;19.67;;;10.85;;
80219;SDS011;70247;37.958;23.722;2023-06-10T05:32:24;32.17;;;12.48;;
80219;SDS011;70247;37.958;23.722;2023-06-10T05:34:50;23.67;;;11.98;;
80219;SDS011;70247;37.958;23.722;2023-06-10T05:37:15;26.25;;;11.25;;
80219;SDS011;70247;37.958;23.722;2023-06-10T05:39:41;23.10;;;10.73;;
80219;SDS011;70247;37.958;23.722;2023-06-10T05:42:07;19.80;;;10.93;;
80219;SDS011;70247;37.958;23.722;2023-06-10T05:44:33;19.00;;;10.55;;
80219;SDS011;70247;37.958;23.722;2023-06-10T05:46:59;18.35;;;10.85;;
80219;SDS011;70247;37.958;23.722;2023-06-10T05:49:25;21.42;;;10.52;;
80219;SDS011;70247;37.958;23.722;2023-06-10T05:51:51;19.90;;;9.82;;
80219;SDS011;70247;37.958;23.722;2023-06-10T05:54:18;18.25;;;8.68;;
80219;SDS011;70247;37.958;23.722;2023-06-10T05:56:43;16.63;;;8.18;;
80219;SDS011;70247;37.958;23.722;2023-06-10T05:59:09;14.70;;;8.25;;
80219;SDS011;70247;37.958;23.722;2023-06-10T06:01:35;15.82;;;7.57;;
80219;SDS011;70247;37.958;23.722;2023-06-10T06:04:01;13.55;;;8.27;;
80219;SDS011;70247;37.958;23.722;2023-06-10T06:06:27;16.55;;;7.95;;
80219;SDS011;70247;37.958;23.722;2023-06-10T06:08:53;13.57;;;8.02;;
80219;SDS011;70247;37.958;23.722;2023-06-10T06:11:18;16.55;;;7.75;;
80219;SDS011;70247;37.958;23.722;2023-06-10T06:13:44;19.60;;;8.65;;
80219;SDS011;70247;37.958;23.722;2023-06-10T06:16:10;17.58;;;7.63;;
80219;SDS011;70247;37.958;23.722;2023-06-10T06:18:35;19.20;;;7.93;;
80219;SDS011;70247;37.958;23.722;2023-06-10T06:21:01;19.95;;;8.30;;
80219;SDS011;70247;37.958;23.722;2023-06-10T06:23:27;20.00;;;7.10;;
80219;SDS011;70247;37.958;23.722;2023-06-10T06:25:52;12.70;;;7.63;;
80219;SDS011;70247;37.958;23.722;2023-06-10T06:28:18;22.55;;;8.25;;
80219;SDS011;70247;37.958;23.722;2023-06-10T06:30:46;17.23;;;8.13;;
80219;SDS011;70247;37.958;23.722;2023-06-10T06:33:12;23.67;;;8.38;;
80219;SDS011;70247;37.958;23.722;2023-06-10T06:35:38;16.50;;;8.10;;
80219;SDS011;70247;37.958;23.722;2023-06-10T06:38:03;19.02;;;7.72;;
80219;SDS011;70247;37.958;23.722;2023-06-10T06:40:29;19.25;;;8.45;;
80219;SDS011;70247;37.958;23.722;2023-06-10T06:42:55;19.15;;;8.25;;
80219;SDS011;70247;37.958;23.722;2023-06-10T06:45:21;21.98;;;7.63;;
80219;SDS011;70247;37.958;23.722;2023-06-10T06:47:47;16.25;;;7.95;;
80219;SDS011;70247;37.958;23.722;2023-06-10T06:50:13;19.77;;;7.50;;
80219;SDS011;70247;37.958;23.722;2023-06-10T06:52:38;14.77;;;7.57;;
80219;SDS011;70247;37.958;23.722;2023-06-10T06:55:04;19.10;;;7.60;;
80219;SDS011;70247;37.958;23.722;2023-06-10T06:57:31;22.50;;;7.40;;
80219;SDS011;70247;37.958;23.722;2023-06-10T06:59:57;19.55;;;7.75;;
80219;SDS011;70247;37.958;23.722;2023-06-10T07:02:22;20.02;;;7.70;;
80219;SDS011;70247;37.958;23.722;2023-06-10T07:04:48;21.95;;;8.65;;
80219;SDS011;70247;37.958;23.722;2023-06-10T07:07:14;13.90;;;7.38;;
80219;SDS011;70247;37.958;23.722;2023-06-10T07:09:40;25.63;;;8.73;;
80219;SDS011;70247;37.958;23.722;2023-06-10T07:12:06;21.60;;;7.82;;
80219;SDS011;70247;37.958;23.722;2023-06-10T07:14:32;18.35;;;7.75;;
80219;SDS011;70247;37.958;23.722;2023-06-10T07:16:58;15.85;;;7.90;;
80219;SDS011;70247;37.958;23.722;2023-06-10T07:19:24;18.65;;;7.93;;
80219;SDS011;70247;37.958;23.722;2023-06-10T07:21:50;16.23;;;7.30;;
80219;SDS011;70247;37.958;23.722;2023-06-10T07:24:15;15.35;;;7.60;;
80219;SDS011;70247;37.958;23.722;2023-06-10T07:26:41;17.95;;;8.13;;
80219;SDS011;70247;37.958;23.722;2023-06-10T07:29:07;22.02;;;7.53;;
80219;SDS011;70247;37.958;23.722;2023-06-10T07:31:32;19.13;;;7.57;;
80219;SDS011;70247;37.958;23.722;2023-06-10T07:33:58;19.58;;;7.85;;
80219;SDS011;70247;37.958;23.722;2023-06-10T07:36:24;17.63;;;8.00;;
80219;SDS011;70247;37.958;23.722;2023-06-10T07:38:52;16.23;;;7.63;;
80219;SDS011;70247;37.958;23.722;2023-06-10T07:41:19;18.05;;;7.80;;
80219;SDS011;70247;37.958;23.722;2023-06-10T07:43:45;19.85;;;8.55;;
80219;SDS011;70247;37.958;23.722;2023-06-10T07:46:11;23.77;;;8.20;;
80219;SDS011;70247;37.958;23.722;2023-06-10T07:48:36;14.38;;;7.38;;
80219;SDS011;70247;37.958;23.722;2023-06-10T07:51:02;16.55;;;7.30;;
80219;SDS011;70247;37.958;23.722;2023-06-10T07:53:28;16.98;;;7.72;;
80219;SDS011;70247;37.958;23.722;2023-06-10T07:55:54;15.65;;;7.70;;
80219;SDS011;70247;37.958;23.722;2023-06-10T07:58:20;20.40;;;7.65;;
80219;SDS011;70247;37.958;23.722;2023-06-10T08:00:47;15.73;;;7.30;;
80219;SDS011;70247;37.958;23.722;2023-06-10T08:03:13;17.77;;;7.95;;
80219;SDS011;70247;37.958;23.722;2023-06-10T08:05:42;15.48;;;8.00;;
80219;SDS011;70247;37.958;23.722;2023-06-10T08:08:08;15.73;;;7.20;;
80219;SDS011;70247;37.958;23.722;2023-06-10T08:10:35;14.27;;;7.28;;
80219;SDS011;70247;37.958;23.722;2023-06-10T08:13:00;19.67;;;7.65;;
80219;SDS011;70247;37.958;23.722;2023-06-10T08:15:26;16.05;;;8.18;;
80219;SDS011;70247;37.958;23.722;2023-06-10T08:17:52;13.32;;;7.35;;
80219;SDS011;70247;37.958;23.722;2023-06-10T08:20:18;14.35;;;7.53;;
80219;SDS011;70247;37.958;23.722;2023-06-10T08:22:43;12.68;;;7.05;;
80219;SDS011;70247;37.958;23.722;2023-06-10T08:25:09;16.35;;;7.38;;
80219;SDS011;70247;37.958;23.722;2023-06-10T08:27:35;16.05;;;7.93;;
80219;SDS011;70247;37.958;23.722;2023-06-10T08:30:01;12.68;;;7.47;;
80219;SDS011;70247;37.958;23.722;2023-06-10T08:32:27;13.23;;;7.07;;
80219;SDS011;70247;37.958;23.722;2023-06-10T08:34:52;16.17;;;7.13;;
80219;SDS011;70247;37.958;23.722;2023-06-10T08:37:18;16.23;;;7.57;;
80219;SDS011;70247;37.958;23.722;2023-06-10T08:39:44;16.42;;;7.65;;
80219;SDS011;70247;37.958;23.722;2023-06-10T08:42:22;16.42;;;6.93;;
80219;SDS011;70247;37.958;23.722;2023-06-10T08:44:53;11.40;;;6.78;;
80219;SDS011;70247;37.958;23.722;2023-06-10T08:47:22;10.45;;;6.68;;
80219;SDS011;70247;37.958;23.722;2023-06-10T08:49:48;16.25;;;7.40;;
80219;SDS011;70247;37.958;23.722;2023-06-10T08:52:18;12.93;;;6.85;;
80219;SDS011;70247;37.958;23.722;2023-06-10T08:54:49;27.80;;;15.30;;
80219;SDS011;70247;37.958;23.722;2023-06-10T08:57:20;21.00;;;7.32;;
80219;SDS011;70247;37.958;23.722;2023-06-10T08:59:47;19.88;;;7.32;;
80219;SDS011;70247;37.958;23.722;2023-06-10T09:02:13;14.77;;;6.63;;
80219;SDS011;70247;37.958;23.722;2023-06-10T09:04:41;13.05;;;7.03;;
80219;SDS011;70247;37.958;23.722;2023-06-10T09:07:09;12.75;;;6.78;;
80219;SDS011;70247;37.958;23.722;2023-06-10T09:09:35;18.58;;;7.22;;
80219;SDS011;70247;37.958;23.722;2023-06-10T09:12:02;12.45;;;6.80;;
80219;SDS011;70247;37.958;23.722;2023-06-10T09:14:28;16.33;;;6.97;;
80219;SDS011;70247;37.958;23.722;2023-06-10T09:16:54;14.25;;;7.07;;
80219;SDS011;70247;37.958;23.722;2023-06-10T09:19:23;17.17;;;7.18;;
80219;SDS011;70247;37.958;23.722;2023-06-10T09:21:52;14.02;;;8.25;;
80219;SDS011;70247;37.958;23.722;2023-06-10T09:24:18;21.85;;;12.63;;
80219;SDS011;70247;37.958;23.722;2023-06-10T09:26:43;14.73;;;7.03;;
80219;SDS011;70247;37.958;23.722;2023-06-10T09:29:11;13.52;;;6.75;;
80219;SDS011;70247;37.958;23.722;2023-06-10T09:31:37;12.35;;;6.85;;
80219;SDS011;70247;37.958;23.722;2023-06-10T09:36:34;13.13;;;6.85;;
80219;SDS011;70247;37.958;23.722;2023-06-10T09:39:01;13.50;;;6.82;;
80219;SDS011;70247;37.958;23.722;2023-06-10T09:41:34;15.70;;;6.68;;
80219;SDS011;70247;37.958;23.722;2023-06-10T09:44:01;11.70;;;6.32;;
80219;SDS011;70247;37.958;23.722;2023-06-10T09:46:30;18.42;;;6.50;;
80219;SDS011;70247;37.958;23.722;2023-06-10T09:48:59;12.90;;;6.97;;
80219;SDS011;70247;37.958;23.722;2023-06-10T09:51:25;12.18;;;6.95;;
80219;SDS011;70247;37.958;23.722;2023-06-10T09:53:51;10.35;;;6.90;;
80219;SDS011;70247;37.958;23.722;2023-06-10T09:56:17;11.85;;;6.57;;
80219;SDS011;70247;37.958;23.722;2023-06-10T09:58:44;14.70;;;6.60;;
80219;SDS011;70247;37.958;23.722;2023-06-10T10:01:12;12.45;;;6.78;;
80219;SDS011;70247;37.958;23.722;2023-06-10T10:06:12;15.73;;;6.72;;
80219;SDS011;70247;37.958;23.722;2023-06-10T10:08:38;15.48;;;6.22;;
80219;SDS011;70247;37.958;23.722;2023-06-10T10:11:04;12.20;;;6.90;;
80219;SDS011;70247;37.958;23.722;2023-06-10T10:13:31;14.40;;;6.93;;
80219;SDS011;70247;37.958;23.722;2023-06-10T10:16:00;15.75;;;7.57;;
80219;SDS011;70247;37.958;23.722;2023-06-10T10:18:29;10.00;;;6.50;;
80219;SDS011;70247;37.958;23.722;2023-06-10T10:20:57;11.93;;;6.10;;
80219;SDS011;70247;37.958;23.722;2023-06-10T10:23:39;16.52;;;7.40;;
80219;SDS011;70247;37.958;23.722;2023-06-10T10:26:29;13.77;;;6.55;;
80219;SDS011;70247;37.958;23.722;2023-06-10T10:29:05;13.75;;;6.72;;
80219;SDS011;70247;37.958;23.722;2023-06-10T10:31:39;14.48;;;6.70;;
80219;SDS011;70247;37.958;23.722;2023-06-10T10:34:11;11.73;;;6.38;;
80219;SDS011;70247;37.958;23.722;2023-06-10T10:36:40;12.90;;;7.15;;
80219;SDS011;70247;37.958;23.722;2023-06-10T10:39:07;14.55;;;6.00;;
80219;SDS011;70247;37.958;23.722;2023-06-10T10:41:34;13.75;;;6.18;;
80219;SDS011;70247;37.958;23.722;2023-06-10T10:44:03;12.65;;;6.55;;
80219;SDS011;70247;37.958;23.722;2023-06-10T10:46:41;12.80;;;6.68;;
80219;SDS011;70247;37.958;23.722;2023-06-10T10:49:08;12.70;;;6.50;;
80219;SDS011;70247;37.958;23.722;2023-06-10T10:51:35;13.10;;;6.53;;
80219;SDS011;70247;37.958;23.722;2023-06-10T10:54:14;8.50;;;6.28;;
80219;SDS011;70247;37.958;23.722;2023-06-10T10:56:45;10.70;;;6.43;;
80219;SDS011;70247;37.958;23.722;2023-06-10T11:02:31;15.03;;;6.70;;
80219;SDS011;70247;37.958;23.722;2023-06-10T11:05:08;11.73;;;7.80;;
80219;SDS011;70247;37.958;23.722;2023-06-10T11:07:39;16.83;;;6.57;;
80219;SDS011;70247;37.958;23.722;2023-06-10T11:10:10;16.35;;;7.07;;
80219;SDS011;70247;37.958;23.722;2023-06-10T11:15:13;15.88;;;7.53;;
80219;SDS011;70247;37.958;23.722;2023-06-10T11:26:11;16.92;;;7.00;;
80219;SDS011;70247;37.958;23.722;2023-06-10T11:31:20;24.10;;;7.50;;
80219;SDS011;70247;37.958;23.722;2023-06-10T11:33:54;15.18;;;7.00;;
80219;SDS011;70247;37.958;23.722;2023-06-10T11:36:28;11.93;;;7.20;;
80219;SDS011;70247;37.958;23.722;2023-06-10T11:39:00;14.88;;;6.70;;
80219;SDS011;70247;37.958;23.722;2023-06-10T11:41:31;19.52;;;7.68;;
80219;SDS011;70247;37.958;23.722;2023-06-10T11:44:07;12.70;;;6.70;;
80219;SDS011;70247;37.958;23.722;2023-06-10T11:46:36;18.38;;;7.22;;
80219;SDS011;70247;37.958;23.722;2023-06-10T11:49:03;18.65;;;7.30;;
80219;SDS011;70247;37.958;23.722;2023-06-10T11:51:32;12.07;;;7.32;;
80219;SDS011;70247;37.958;23.722;2023-06-10T11:54:05;13.05;;;6.75;;
80219;SDS011;70247;37.958;23.722;2023-06-10T11:56:31;14.35;;;7.03;;
80219;SDS011;70247;37.958;23.722;2023-06-10T11:59:01;8.55;;;6.25;;
80219;SDS011;70247;37.958;23.722;2023-06-10T12:01:33;9.98;;;5.75;;
80219;SDS011;70247;37.958;23.722;2023-06-10T12:04:01;13.02;;;6.10;;
80219;SDS011;70247;37.958;23.722;2023-06-10T12:06:38;12.13;;;6.20;;
80219;SDS011;70247;37.958;23.722;2023-06-10T12:11:44;13.30;;;6.68;;
80219;SDS011;70247;37.958;23.722;2023-06-10T12:14:10;10.38;;;6.03;;
80219;SDS011;70247;37.958;23.722;2023-06-10T12:16:36;13.23;;;6.90;;
80219;SDS011;70247;37.958;23.722;2023-06-10T12:19:04;13.30;;;6.22;;
80219;SDS011;70247;37.958;23.722;2023-06-10T12:21:32;11.70;;;6.32;;
80219;SDS011;70247;37.958;23.722;2023-06-10T12:24:10;9.05;;;6.40;;
80219;SDS011;70247;37.958;23.722;2023-06-10T12:26:40;11.40;;;6.15;;
80219;SDS011;70247;37.958;23.722;2023-06-10T12:29:20;18.70;;;9.90;;
80219;SDS011;70247;37.958;23.722;2023-06-10T12:31:53;11.48;;;7.75;;
80219;SDS011;70247;37.958;23.722;2023-06-10T12:34:18;15.52;;;6.60;;
80219;SDS011;70247;37.958;23.722;2023-06-10T12:36:48;12.07;;;6.45;;
80219;SDS011;70247;37.958;23.722;2023-06-10T12:39:14;9.88;;;6.45;;
80219;SDS011;70247;37.958;23.722;2023-06-10T12:41:40;11.30;;;6.25;;
80219;SDS011;70247;37.958;23.722;2023-06-10T12:44:11;8.73;;;5.97;;
80219;SDS011;70247;37.958;23.722;2023-06-10T12:46:37;12.13;;;6.15;;
80219;SDS011;70247;37.958;23.722;2023-06-10T12:49:03;11.02;;;5.63;;
80219;SDS011;70247;37.958;23.722;2023-06-10T12:51:29;9.80;;;5.80;;
80219;SDS011;70247;37.958;23.722;2023-06-10T12:53:54;9.98;;;5.90;;
80219;SDS011;70247;37.958;23.722;2023-06-10T12:56:20;11.52;;;6.70;;
80219;SDS011;70247;37.958;23.722;2023-06-10T12:58:47;12.35;;;6.00;;
80219;SDS011;70247;37.958;23.722;2023-06-10T13:01:13;10.23;;;6.43;;
80219;SDS011;70247;37.958;23.722;2023-06-10T13:03:38;11.15;;;6.10;;
80219;SDS011;70247;37.958;23.722;2023-06-10T13:06:05;9.73;;;5.88;;
80219;SDS011;70247;37.958;23.722;2023-06-10T13:08:31;12.77;;;7.15;;
80219;SDS011;70247;37.958;23.722;2023-06-10T13:10:57;15.07;;;7.05;;
80219;SDS011;70247;37.958;23.722;2023-06-10T13:13:23;11.48;;;6.47;;
80219;SDS011;70247;37.958;23.722;2023-06-10T13:15:49;15.18;;;6.53;;
80219;SDS011;70247;37.958;23.722;2023-06-10T13:18:15;11.48;;;6.28;;
80219;SDS011;70247;37.958;23.722;2023-06-10T13:20:43;11.18;;;7.60;;
80219;SDS011;70247;37.958;23.722;2023-06-10T13:23:09;13.77;;;5.88;;
80219;SDS011;70247;37.958;23.722;2023-06-10T13:25:35;10.02;;;6.40;;
80219;SDS011;70247;37.958;23.722;2023-06-10T13:28:01;12.43;;;6.55;;
80219;SDS011;70247;37.958;23.722;2023-06-10T13:30:27;10.35;;;6.93;;
80219;SDS011;70247;37.958;23.722;2023-06-10T13:32:53;11.38;;;6.43;;
80219;SDS011;70247;37.958;23.722;2023-06-10T13:35:19;11.00;;;6.50;;
80219;SDS011;70247;37.958;23.722;2023-06-10T13:37:45;15.88;;;6.70;;
80219;SDS011;70247;37.958;23.722;2023-06-10T13:40:11;9.13;;;6.60;;
80219;SDS011;70247;37.958;23.722;2023-06-10T13:42:37;13.05;;;5.90;;
80219;SDS011;70247;37.958;23.722;2023-06-10T13:45:03;12.95;;;6.22;;
80219;SDS011;70247;37.958;23.722;2023-06-10T13:47:30;11.32;;;6.00;;
80219;SDS011;70247;37.958;23.722;2023-06-10T13:49:55;9.90;;;5.85;;
80219;SDS011;70247;37.958;23.722;2023-06-10T13:52:21;11.52;;;6.15;;
80219;SDS011;70247;37.958;23.722;2023-06-10T13:54:47;10.70;;;5.82;;
80219;SDS011;70247;37.958;23.722;2023-06-10T13:57:12;9.55;;;6.03;;
80219;SDS011;70247;37.958;23.722;2023-06-10T13:59:38;10.98;;;5.95;;
80219;SDS011;70247;37.958;23.722;2023-06-10T14:02:04;8.00;;;5.97;;
80219;SDS011;70247;37.958;23.722;2023-06-10T14:04:30;9.88;;;6.10;;
80219;SDS011;70247;37.958;23.722;2023-06-10T14:06:55;12.43;;;5.72;;
80219;SDS011;70247;37.958;23.722;2023-06-10T14:09:22;8.73;;;6.20;;
80219;SDS011;70247;37.958;23.722;2023-06-10T14:11:48;12.65;;;5.95;;
80219;SDS011;70247;37.958;23.722;2023-06-10T14:14:14;12.05;;;5.90;;
80219;SDS011;70247;37.958;23.722;2023-06-10T14:16:40;14.50;;;6.43;;
80219;SDS011;70247;37.958;23.722;2023-06-10T14:19:05;11.07;;;5.82;;
80219;SDS011;70247;37.958;23.722;2023-06-10T14:21:31;11.77;;;5.75;;
80219;SDS011;70247;37.958;23.722;2023-06-10T14:23:57;13.80;;;6.22;;
80219;SDS011;70247;37.958;23.722;2023-06-10T14:26:23;8.75;;;5.72;;
80219;SDS011;70247;37.958;23.722;2023-06-10T14:28:49;10.65;;;6.35;;
80219;SDS011;70247;37.958;23.722;2023-06-10T14:31:15;14.45;;;6.47;;
80219;SDS011;70247;37.958;23.722;2023-06-10T14:33:41;8.70;;;6.05;;
80219;SDS011;70247;37.958;23.722;2023-06-10T14:36:08;12.57;;;6.28;;
80219;SDS011;70247;37.958;23.722;2023-06-10T14:38:37;13.82;;;6.45;;
80219;SDS011;70247;37.958;23.722;2023-06-10T14:41:03;10.07;;;6.45;;
80219;SDS011;70247;37.958;23.722;2023-06-10T14:43:29;14.40;;;6.55;;
80219;SDS011;70247;37.958;23.722;2023-06-10T14:45:54;16.58;;;6.38;;